createdAt,value
2023-05-19T00:01:32.031Z,7.90
2023-05-19T00:04:02.878Z,8.63
2023-05-19T00:06:33.973Z,8.00
2023-05-19T00:09:03.503Z,8.40
2023-05-19T00:11:31.717Z,8.00
2023-05-19T00:14:01.847Z,7.30
2023-05-19T00:16:30.736Z,7.07
2023-05-19T00:19:00.031Z,8.00
2023-05-19T00:21:28.111Z,8.50
2023-05-19T00:23:57.476Z,7.67
2023-05-19T00:26:26.894Z,7.33
2023-05-19T00:28:55.171Z,7.93
2023-05-19T00:31:22.954Z,8.50
2023-05-19T00:33:52.009Z,7.37
2023-05-19T00:36:19.820Z,8.20
2023-05-19T00:38:47.540Z,7.27
2023-05-19T00:41:16.516Z,6.90
2023-05-19T00:43:44.201Z,8.00
2023-05-19T00:46:12.032Z,9.10
2023-05-19T00:48:39.698Z,7.47
2023-05-19T00:51:08.004Z,6.50
2023-05-19T00:53:36.399Z,7.70
2023-05-19T00:56:04.469Z,9.37
2023-05-19T00:58:34.944Z,7.57
2023-05-19T01:01:03.666Z,9.17
2023-05-19T01:03:35.030Z,8.17
2023-05-19T01:06:05.300Z,8.30
2023-05-19T01:08:33.421Z,9.77
2023-05-19T01:11:01.223Z,8.70
2023-05-19T01:13:29.613Z,8.80
2023-05-19T01:16:09.854Z,8.07
2023-05-19T01:18:46.340Z,9.00
2023-05-19T01:21:37.146Z,8.30
2023-05-19T01:24:24.181Z,9.10
2023-05-19T01:27:22.648Z,7.93
2023-05-19T01:30:16.948Z,8.80
2023-05-19T01:32:48.343Z,8.13
2023-05-19T01:35:17.753Z,8.70
2023-05-19T01:37:46.170Z,7.63
2023-05-19T01:40:14.376Z,9.00
2023-05-19T01:42:43.092Z,9.70
2023-05-19T01:45:11.399Z,9.63
2023-05-19T01:47:48.376Z,10.10
2023-05-19T01:50:16.135Z,10.57
2023-05-19T01:52:43.857Z,9.27
2023-05-19T01:55:11.672Z,9.93
2023-05-19T01:57:53.280Z,10.43
2023-05-19T02:00:32.791Z,10.07
2023-05-19T02:03:14.014Z,11.70
2023-05-19T02:05:53.984Z,11.20
2023-05-19T02:08:26.869Z,11.53
2023-05-19T02:11:07.615Z,10.37
2023-05-19T02:13:39.108Z,10.80
2023-05-19T02:16:08.121Z,12.17
2023-05-19T02:18:37.275Z,10.00
2023-05-19T02:21:05.332Z,10.60
2023-05-19T02:23:32.986Z,10.10
2023-05-19T02:26:01.085Z,10.70
2023-05-19T02:28:28.756Z,10.40
2023-05-19T02:30:56.435Z,12.10
2023-05-19T02:33:27.453Z,9.90
2023-05-19T02:35:56.497Z,10.50
2023-05-19T02:38:24.207Z,11.40
2023-05-19T02:40:52.623Z,10.53
2023-05-19T02:43:20.755Z,10.90
2023-05-19T02:45:48.504Z,10.80
2023-05-19T02:48:16.123Z,11.13
2023-05-19T02:50:43.901Z,11.50
2023-05-19T02:53:12.845Z,9.70
2023-05-19T02:55:40.406Z,10.03
2023-05-19T02:58:08.076Z,9.20
2023-05-19T03:00:35.646Z,8.90
2023-05-19T03:03:04.684Z,10.50
2023-05-19T03:05:32.358Z,9.27
2023-05-19T03:08:00.645Z,10.07
2023-05-19T03:10:29.748Z,11.07
2023-05-19T03:12:57.462Z,10.30
2023-05-19T03:15:25.108Z,10.73
2023-05-19T03:17:52.994Z,10.10
2023-05-19T03:20:20.740Z,9.70
2023-05-19T03:22:48.317Z,9.90
2023-05-19T03:25:16.030Z,9.80
2023-05-19T03:27:45.012Z,11.03
2023-05-19T03:30:13.897Z,10.70
2023-05-19T03:32:42.233Z,9.13
2023-05-19T03:35:10.258Z,11.23
2023-05-19T03:37:37.857Z,10.27
2023-05-19T03:40:07.306Z,10.23
2023-05-19T03:42:34.950Z,9.13
2023-05-19T03:45:04.241Z,9.30
2023-05-19T03:47:32.613Z,9.03
2023-05-19T03:50:00.238Z,9.47
2023-05-19T03:52:27.937Z,10.10
2023-05-19T03:54:55.872Z,9.40
2023-05-19T03:57:23.560Z,10.63
2023-05-19T03:59:51.337Z,9.60
2023-05-19T04:02:20.309Z,9.30
2023-05-19T04:04:48.041Z,8.70
2023-05-19T04:07:15.767Z,9.70
2023-05-19T04:09:43.398Z,9.20
2023-05-19T04:12:11.199Z,8.93
2023-05-19T04:14:38.825Z,7.53
2023-05-19T04:17:06.508Z,7.93
2023-05-19T04:19:35.502Z,8.30
2023-05-19T04:22:03.094Z,7.87
2023-05-19T04:24:30.725Z,7.00
2023-05-19T04:27:02.393Z,7.53
2023-05-19T04:29:30.473Z,6.87
2023-05-19T04:31:58.157Z,7.03
2023-05-19T04:34:25.883Z,6.47
2023-05-19T04:36:55.443Z,5.73
2023-05-19T04:39:23.064Z,5.80
2023-05-19T04:41:50.684Z,5.70
2023-05-19T04:44:19.177Z,5.33
2023-05-19T04:46:47.159Z,5.33
2023-05-19T04:49:14.882Z,5.73
2023-05-19T04:51:42.639Z,4.80
2023-05-19T04:54:11.829Z,5.43
2023-05-19T04:56:39.476Z,5.00
2023-05-19T04:59:07.061Z,5.77
2023-05-19T05:01:34.753Z,5.37
2023-05-19T05:04:02.752Z,4.60
2023-05-19T05:06:31.657Z,5.30
2023-05-19T05:08:59.972Z,5.17
2023-05-19T05:11:29.599Z,5.20
2023-05-19T05:13:57.993Z,4.83
2023-05-19T05:16:27.087Z,5.57
2023-05-19T05:18:55.818Z,5.03
2023-05-19T05:21:24.323Z,4.83
2023-05-19T05:23:52.582Z,6.27
2023-05-19T05:26:23.016Z,5.00
2023-05-19T05:28:52.123Z,5.30
2023-05-19T05:31:19.991Z,4.97
2023-05-19T05:33:47.990Z,5.20
2023-05-19T05:36:15.787Z,4.80
2023-05-19T05:38:43.529Z,5.70
2023-05-19T05:41:11.688Z,5.97
2023-05-19T05:43:40.811Z,5.30
2023-05-19T05:46:09.818Z,5.63
2023-05-19T05:48:38.124Z,4.77
2023-05-19T05:51:07.022Z,5.83
2023-05-19T05:53:40.033Z,5.10
2023-05-19T05:56:08.662Z,5.50
2023-05-19T05:58:37.873Z,5.90
2023-05-19T06:01:06.098Z,5.20
2023-05-19T06:03:35.139Z,6.10
2023-05-19T06:06:03.335Z,5.73
2023-05-19T06:08:31.186Z,5.30
2023-05-19T06:10:59.028Z,5.07
2023-05-19T06:13:26.644Z,4.70
2023-05-19T06:15:54.284Z,4.93
2023-05-19T06:18:22.206Z,5.57
2023-05-19T06:20:51.441Z,5.37
2023-05-19T06:23:19.008Z,4.50
2023-05-19T06:25:47.181Z,5.07
2023-05-19T06:28:14.902Z,5.30
2023-05-19T06:30:42.508Z,4.17
2023-05-19T06:33:10.152Z,4.50
2023-05-19T06:35:38.147Z,4.83
2023-05-19T06:38:07.188Z,4.30
2023-05-19T06:40:35.003Z,4.50
2023-05-19T06:43:02.798Z,5.13
2023-05-19T06:45:30.434Z,4.73
2023-05-19T06:47:59.604Z,4.17
2023-05-19T06:50:27.385Z,5.03
2023-05-19T06:52:55.546Z,4.40
2023-05-19T06:55:25.010Z,4.27
2023-05-19T06:57:52.615Z,3.70
2023-05-19T07:00:22.093Z,4.53
2023-05-19T07:02:51.718Z,4.23
2023-05-19T07:05:19.666Z,4.60
2023-05-19T07:07:47.445Z,4.10
2023-05-19T07:10:15.149Z,4.10
2023-05-19T07:12:44.928Z,5.17
2023-05-19T07:15:12.721Z,4.27
2023-05-19T07:17:40.567Z,3.73
2023-05-19T07:20:09.994Z,3.77
2023-05-19T07:22:39.835Z,4.10
2023-05-19T07:25:08.359Z,4.80
2023-05-19T07:27:36.019Z,4.20
2023-05-19T07:30:05.661Z,4.70
2023-05-19T07:32:33.566Z,5.00
2023-05-19T07:35:03.084Z,4.80
2023-05-19T07:37:31.308Z,4.60
2023-05-19T07:39:59.182Z,5.53
2023-05-19T07:42:26.825Z,5.47
2023-05-19T07:44:54.543Z,4.87
2023-05-19T07:47:23.611Z,5.57
2023-05-19T07:49:51.982Z,4.90
2023-05-19T07:52:19.893Z,4.90
2023-05-19T07:54:47.534Z,5.50
2023-05-19T07:57:15.500Z,4.43
2023-05-19T07:59:43.175Z,4.70
2023-05-19T08:02:10.898Z,5.00
2023-05-19T08:04:40.086Z,5.00
2023-05-19T08:07:07.798Z,5.03
2023-05-19T08:09:35.451Z,5.53
2023-05-19T08:12:04.854Z,4.37
2023-05-19T08:14:34.858Z,4.53
2023-05-19T08:17:02.505Z,4.73
2023-05-19T08:19:30.280Z,5.27
2023-05-19T08:22:01.115Z,4.70
2023-05-19T08:24:30.164Z,5.00
2023-05-19T08:26:57.767Z,5.60
2023-05-19T08:29:25.478Z,4.80
2023-05-19T08:31:53.538Z,5.47
2023-05-19T08:34:22.327Z,5.70
2023-05-19T08:36:50.065Z,5.23
2023-05-19T08:39:24.083Z,5.30
2023-05-19T08:41:51.728Z,5.40
2023-05-19T08:44:19.333Z,4.87
2023-05-19T08:46:48.574Z,5.13
2023-05-19T08:49:25.563Z,4.70
2023-05-19T08:51:59.334Z,5.00
2023-05-19T08:54:33.614Z,5.20
2023-05-19T08:57:02.206Z,5.47
2023-05-19T08:59:30.928Z,5.10
2023-05-19T09:01:59.072Z,4.87
2023-05-19T09:04:29.955Z,5.00
2023-05-19T09:06:58.786Z,4.93
2023-05-19T09:09:27.891Z,5.37
2023-05-19T09:11:55.600Z,4.47
2023-05-19T09:14:23.894Z,5.50
2023-05-19T09:16:52.802Z,4.87
2023-05-19T09:19:21.240Z,4.57
2023-05-19T09:21:59.858Z,4.80
2023-05-19T09:24:29.845Z,4.77
2023-05-19T09:26:59.905Z,4.83
2023-05-19T09:29:28.040Z,5.20
2023-05-19T09:32:00.603Z,5.00
2023-05-19T09:34:28.751Z,5.87
2023-05-19T09:36:57.941Z,4.93
2023-05-19T09:39:26.127Z,5.63
2023-05-19T09:41:56.262Z,5.00
2023-05-19T09:44:24.308Z,5.20
2023-05-19T09:46:53.001Z,5.83
2023-05-19T09:49:22.521Z,5.03
2023-05-19T09:51:51.905Z,5.00
2023-05-19T09:54:21.402Z,5.13
2023-05-19T09:56:53.093Z,7.73
2023-05-19T09:59:25.622Z,5.30
2023-05-19T10:01:55.996Z,4.97
2023-05-19T10:04:24.328Z,4.73
2023-05-19T10:06:54.306Z,5.27
2023-05-19T10:09:24.768Z,5.10
2023-05-19T10:11:54.122Z,5.93
2023-05-19T10:14:25.662Z,5.30
2023-05-19T10:16:55.830Z,5.17
2023-05-19T10:19:25.103Z,4.60
2023-05-19T10:21:53.307Z,4.87
2023-05-19T10:24:21.434Z,5.23
2023-05-19T10:26:54.517Z,5.10
2023-05-19T10:29:34.281Z,5.33
2023-05-19T10:32:05.892Z,6.17
2023-05-19T10:35:09.090Z,5.70
2023-05-19T10:37:45.954Z,5.93
2023-05-19T10:40:22.100Z,4.53
2023-05-19T10:43:03.253Z,4.53
2023-05-19T10:45:37.479Z,5.00
2023-05-19T10:48:05.830Z,5.43
2023-05-19T10:50:37.981Z,5.43
2023-05-19T10:53:05.600Z,5.40
2023-05-19T10:55:47.573Z,5.67
2023-05-19T10:58:15.567Z,5.73
2023-05-19T11:00:44.656Z,5.27
2023-05-19T11:03:16.205Z,4.90
2023-05-19T11:05:45.679Z,5.10
2023-05-19T11:08:14.126Z,5.40
2023-05-19T11:10:45.312Z,6.00
2023-05-19T11:13:22.712Z,4.87
2023-05-19T11:15:52.886Z,4.97
2023-05-19T11:18:21.333Z,5.00
2023-05-19T11:20:58.198Z,5.10
2023-05-19T11:23:27.188Z,5.20
2023-05-19T11:25:54.812Z,5.20
2023-05-19T11:28:25.933Z,5.13
2023-05-19T11:30:57.593Z,4.77
2023-05-19T11:33:27.181Z,4.90
2023-05-19T11:35:57.938Z,5.37
2023-05-19T11:38:26.466Z,4.70
2023-05-19T11:40:54.823Z,5.17
2023-05-19T11:43:24.587Z,4.70
2023-05-19T11:45:52.553Z,4.70
2023-05-19T11:48:23.674Z,5.07
2023-05-19T11:50:52.437Z,4.77
2023-05-19T11:53:20.923Z,4.87
2023-05-19T11:55:50.057Z,4.43
2023-05-19T11:58:18.391Z,4.10
2023-05-19T12:00:47.688Z,5.00
2023-05-19T12:03:17.412Z,4.53
2023-05-19T12:05:49.561Z,5.07
2023-05-19T12:08:18.364Z,4.17
2023-05-19T12:10:49.753Z,4.20
2023-05-19T12:13:17.985Z,5.30
2023-05-19T12:15:46.180Z,4.97
2023-05-19T12:18:13.888Z,4.70
2023-05-19T12:20:41.836Z,5.30
2023-05-19T12:23:11.156Z,4.40
2023-05-19T12:25:39.339Z,4.50
2023-05-19T12:28:07.835Z,4.87
2023-05-19T12:30:35.867Z,4.20
2023-05-19T12:33:04.356Z,4.20
2023-05-19T12:35:34.070Z,4.03
2023-05-19T12:38:04.539Z,4.30
2023-05-19T12:40:34.690Z,4.80
2023-05-19T12:43:02.762Z,4.10
2023-05-19T12:45:35.049Z,4.40
2023-05-19T12:48:05.263Z,4.60
2023-05-19T12:50:34.163Z,4.77
2023-05-19T12:53:02.169Z,5.40
2023-05-19T12:55:31.100Z,4.60
2023-05-19T12:58:00.341Z,4.33
2023-05-19T13:00:30.952Z,4.70
2023-05-19T13:03:01.414Z,4.33
2023-05-19T13:05:31.553Z,4.60
2023-05-19T13:08:00.547Z,4.40
2023-05-19T13:10:28.879Z,4.63
2023-05-19T13:12:57.313Z,4.03
2023-05-19T13:15:27.245Z,4.30
2023-05-19T13:17:56.042Z,4.10
2023-05-19T13:20:26.903Z,5.60
2023-05-19T13:22:56.947Z,3.90
2023-05-19T13:25:24.576Z,4.20
2023-05-19T13:27:52.242Z,5.03
2023-05-19T13:30:20.968Z,4.70
2023-05-19T13:32:50.718Z,4.13
2023-05-19T13:35:18.327Z,5.00
2023-05-19T13:37:46.265Z,4.43
2023-05-19T13:40:15.817Z,4.90
2023-05-19T13:42:43.566Z,4.93
2023-05-19T13:45:11.643Z,5.47
2023-05-19T13:47:39.826Z,5.10
2023-05-19T13:50:09.659Z,4.80
2023-05-19T13:52:37.331Z,5.70
2023-05-19T13:55:05.539Z,4.83
2023-05-19T13:57:33.482Z,4.90
2023-05-19T14:00:03.704Z,4.60
2023-05-19T14:02:32.163Z,5.30
2023-05-19T14:04:59.887Z,5.03
2023-05-19T14:07:29.237Z,4.70
2023-05-19T14:09:57.017Z,4.50
2023-05-19T14:12:33.893Z,5.23
2023-05-19T14:15:04.905Z,4.40
2023-05-19T14:17:32.766Z,5.07
2023-05-19T14:20:01.319Z,4.60
2023-05-19T14:22:30.567Z,4.87
2023-05-19T14:24:58.213Z,5.80
2023-05-19T14:27:25.953Z,4.90
2023-05-19T14:29:53.615Z,4.80
2023-05-19T14:32:21.737Z,5.00
2023-05-19T14:34:52.738Z,5.30
2023-05-19T14:37:20.620Z,4.63
2023-05-19T14:39:49.687Z,4.63
2023-05-19T14:42:17.428Z,4.60
2023-05-19T14:44:45.187Z,4.83
2023-05-19T14:47:12.940Z,5.23
2023-05-19T14:49:40.651Z,4.90
2023-05-19T14:52:08.385Z,5.07
2023-05-19T14:54:36.100Z,4.73
2023-05-19T14:57:07.200Z,4.20
2023-05-19T14:59:38.060Z,4.33
2023-05-19T15:02:06.355Z,4.93
2023-05-19T15:04:34.324Z,4.83
2023-05-19T15:09:32.572Z,4.57
2023-05-19T15:12:01.042Z,4.83
2023-05-19T15:14:31.061Z,4.40
2023-05-19T15:16:59.350Z,5.10
2023-05-19T15:19:27.291Z,4.47
2023-05-19T15:21:55.208Z,4.70
2023-05-19T15:24:22.862Z,4.37
2023-05-19T15:26:50.549Z,4.77
2023-05-19T15:29:18.220Z,3.90
2023-05-19T15:31:47.455Z,4.43
2023-05-19T15:34:15.189Z,4.40
2023-05-19T15:36:43.004Z,4.40
2023-05-19T15:39:10.942Z,3.80
2023-05-19T15:41:38.577Z,3.50
2023-05-19T15:44:07.644Z,4.10
2023-05-19T15:46:35.495Z,3.90
2023-05-19T15:49:05.106Z,3.60
2023-05-19T15:51:32.721Z,4.03
2023-05-19T15:54:00.861Z,3.63
2023-05-19T15:56:28.621Z,4.13
2023-05-19T15:58:56.777Z,4.10
2023-05-19T16:01:25.077Z,3.70
2023-05-19T16:03:53.219Z,4.40
2023-05-19T16:06:22.386Z,4.00
2023-05-19T16:08:50.542Z,3.70
2023-05-19T16:11:18.329Z,3.50
2023-05-19T16:13:45.946Z,4.10
2023-05-19T16:16:13.753Z,3.87
2023-05-19T16:18:41.809Z,3.70
2023-05-19T16:21:09.515Z,3.80
2023-05-19T16:23:38.608Z,4.27
2023-05-19T16:26:06.323Z,4.20
2023-05-19T16:28:34.073Z,4.27
2023-05-19T16:31:01.797Z,3.40
2023-05-19T16:33:30.073Z,3.70
2023-05-19T16:35:59.730Z,4.50
2023-05-19T16:38:27.615Z,4.30
2023-05-19T16:40:56.679Z,5.30
2023-05-19T16:43:24.778Z,5.67
2023-05-19T16:45:52.729Z,4.73
2023-05-19T16:48:20.446Z,4.53
2023-05-19T16:50:49.013Z,4.73
2023-05-19T16:53:16.714Z,4.47
2023-05-19T16:55:44.322Z,5.07
2023-05-19T16:58:13.425Z,4.67
2023-05-19T17:00:41.091Z,4.50
2023-05-19T17:03:08.826Z,4.50
2023-05-19T17:05:38.889Z,4.53
2023-05-19T17:08:06.529Z,5.43
2023-05-19T17:10:34.398Z,5.17
2023-05-19T17:13:02.218Z,4.13
2023-05-19T17:15:31.326Z,4.87
2023-05-19T17:17:59.024Z,5.90
2023-05-19T17:20:26.685Z,4.80
2023-05-19T17:22:54.373Z,4.53
2023-05-19T17:25:22.049Z,4.67
2023-05-19T17:27:49.763Z,4.63
2023-05-19T17:30:17.541Z,4.97
2023-05-19T17:32:47.112Z,5.60
2023-05-19T17:35:15.049Z,5.00
2023-05-19T17:37:42.718Z,4.60
2023-05-19T17:40:11.669Z,4.57
2023-05-19T17:42:39.424Z,4.90
2023-05-19T17:45:08.233Z,4.40
2023-05-19T17:47:35.937Z,4.43
2023-05-19T17:50:06.978Z,4.73
2023-05-19T17:52:35.540Z,4.80
2023-05-19T17:55:04.170Z,4.70
2023-05-19T17:57:34.128Z,4.93
2023-05-19T18:00:03.441Z,4.93
2023-05-19T18:02:31.782Z,4.93
2023-05-19T18:05:00.140Z,4.60
2023-05-19T18:07:30.058Z,5.00
2023-05-19T18:09:59.151Z,5.80
2023-05-19T18:12:27.256Z,4.90
2023-05-19T18:14:55.020Z,4.87
2023-05-19T18:17:22.671Z,5.10
2023-05-19T18:19:50.349Z,4.80
2023-05-19T18:22:18.114Z,5.30
2023-05-19T18:24:47.217Z,5.40
2023-05-19T18:27:14.893Z,4.97
2023-05-19T18:29:43.403Z,5.10
2023-05-19T18:32:14.321Z,5.60
2023-05-19T18:34:42.403Z,4.90
2023-05-19T18:37:10.124Z,4.97
2023-05-19T18:39:38.127Z,5.50
2023-05-19T18:42:07.368Z,4.43
2023-05-19T18:44:35.018Z,5.03
2023-05-19T18:47:02.662Z,5.00
2023-05-19T18:49:30.355Z,5.40
2023-05-19T18:51:57.967Z,4.90
2023-05-19T18:54:25.699Z,5.50
2023-05-19T18:56:53.319Z,5.07
2023-05-19T18:59:23.637Z,5.50
2023-05-19T19:01:51.238Z,5.47
2023-05-19T19:04:18.935Z,6.00
2023-05-19T19:06:47.705Z,5.03
2023-05-19T19:09:15.406Z,4.57
2023-05-19T19:11:43.224Z,5.10
2023-05-19T19:14:10.980Z,6.37
2023-05-19T19:16:39.910Z,4.67
2023-05-19T19:19:08.318Z,5.97
2023-05-19T19:21:35.984Z,5.80
2023-05-19T19:24:03.673Z,6.20
2023-05-19T19:26:31.307Z,7.10
2023-05-19T19:28:59.212Z,6.27
2023-05-19T19:31:28.707Z,6.90
2023-05-19T19:34:00.815Z,6.57
2023-05-19T19:36:28.566Z,7.10
2023-05-19T19:38:56.363Z,5.80
2023-05-19T19:41:25.285Z,5.70
2023-05-19T19:43:53.030Z,5.33
2023-05-19T19:46:20.751Z,5.07
2023-05-19T19:48:48.393Z,5.80
2023-05-19T19:51:17.383Z,5.90
2023-05-19T19:53:45.120Z,5.63
2023-05-19T19:56:12.703Z,5.60
2023-05-19T19:58:40.481Z,5.30
2023-05-19T20:01:08.313Z,6.03
2023-05-19T20:03:36.656Z,6.00
2023-05-19T20:06:04.676Z,5.60
2023-05-19T20:08:34.009Z,6.40
2023-05-19T20:11:01.774Z,6.30
2023-05-19T20:13:30.665Z,5.70
2023-05-19T20:15:59.720Z,6.10
2023-05-19T20:18:29.579Z,6.07
2023-05-19T20:20:57.432Z,6.77
2023-05-19T20:23:25.077Z,7.70
2023-05-19T20:26:09.196Z,6.83
2023-05-19T20:28:38.283Z,6.30
2023-05-19T20:31:06.225Z,6.93
2023-05-19T20:33:33.879Z,6.47
2023-05-19T20:36:01.689Z,7.30
2023-05-19T20:38:29.343Z,7.03
2023-05-19T20:40:58.384Z,7.80
2023-05-19T20:43:26.207Z,6.00
2023-05-19T20:45:53.915Z,7.67
2023-05-19T20:48:21.654Z,6.70
2023-05-19T20:50:49.305Z,7.00
2023-05-19T20:53:16.979Z,7.80
2023-05-19T20:55:45.356Z,7.27
2023-05-19T20:58:14.570Z,7.60
2023-05-19T21:00:42.232Z,6.30
2023-05-19T21:03:10.042Z,7.10
2023-05-19T21:05:37.802Z,7.70
2023-05-19T21:08:05.848Z,8.10
2023-05-19T21:10:33.838Z,7.00
2023-05-19T21:13:01.769Z,7.63
2023-05-19T21:15:30.711Z,7.10
2023-05-19T21:17:59.451Z,7.30
2023-05-19T21:20:27.742Z,7.40
2023-05-19T21:22:55.426Z,7.37
2023-05-19T21:25:23.219Z,7.47
2023-05-19T21:27:51.583Z,7.87
2023-05-19T21:30:19.343Z,8.10
2023-05-19T21:32:48.393Z,8.50
2023-05-19T21:35:16.225Z,7.63
2023-05-19T21:37:43.879Z,8.43
2023-05-19T21:40:12.438Z,8.00
2023-05-19T21:42:40.142Z,7.60
2023-05-19T21:45:09.236Z,8.70
2023-05-19T21:47:36.853Z,7.93
2023-05-19T21:50:06.754Z,9.00
2023-05-19T21:52:35.993Z,9.23
2023-05-19T21:55:03.649Z,8.60
2023-05-19T21:57:31.427Z,9.97
2023-05-19T21:59:59.080Z,9.97
2023-05-19T22:02:26.859Z,9.50
2023-05-19T22:04:54.499Z,10.00
2023-05-19T22:07:26.865Z,8.57
2023-05-19T22:09:54.807Z,9.17
2023-05-19T22:12:23.088Z,8.30
2023-05-19T22:14:50.761Z,8.70
2023-05-19T22:17:18.437Z,8.67
2023-05-19T22:19:47.009Z,9.30
2023-05-19T22:22:14.915Z,9.03
2023-05-19T22:24:43.998Z,9.00
2023-05-19T22:27:11.643Z,9.10
2023-05-19T22:29:39.328Z,9.27
2023-05-19T22:32:11.628Z,9.40
2023-05-19T22:34:39.463Z,8.60
2023-05-19T22:37:07.185Z,8.83
2023-05-19T22:39:34.804Z,9.60
2023-05-19T22:42:03.745Z,8.67
2023-05-19T22:44:31.320Z,8.13
2023-05-19T22:46:59.284Z,9.13
2023-05-19T22:49:27.400Z,10.27
2023-05-19T22:51:55.111Z,9.63
2023-05-19T22:54:22.772Z,9.67
2023-05-19T22:56:50.544Z,9.53
2023-05-19T22:59:19.658Z,10.13
2023-05-19T23:01:47.378Z,9.00
2023-05-19T23:04:15.200Z,9.50
2023-05-19T23:06:42.934Z,10.63
2023-05-19T23:09:10.526Z,9.70
2023-05-19T23:11:38.140Z,8.70
2023-05-19T23:14:06.106Z,9.43
2023-05-19T23:16:35.220Z,9.87
2023-05-19T23:19:03.046Z,9.97
2023-05-19T23:21:31.251Z,9.63
2023-05-19T23:23:59.789Z,9.23
2023-05-19T23:26:27.517Z,10.03
2023-05-19T23:28:55.263Z,9.00
2023-05-19T23:31:22.928Z,9.50
2023-05-19T23:33:51.940Z,9.00
2023-05-19T23:36:19.947Z,9.13
2023-05-19T23:38:47.838Z,9.40
2023-05-19T23:41:15.595Z,9.20
2023-05-19T23:43:43.385Z,9.50
2023-05-19T23:46:11.072Z,9.17
2023-05-19T23:48:39.400Z,7.63
2023-05-19T23:51:08.502Z,8.60
2023-05-19T23:53:36.245Z,8.70
2023-05-19T23:56:03.848Z,9.30
2023-05-19T23:58:31.457Z,9.20
